Data for 02/15/2008

Time Sea-Level Adjusted Pressure Absolute Pressure Temperature Relative Humidity Dew Point   
(mb) (inHg) (mb) (inHg) (C) (F) (%) (C) (F)
00:05 1020 30.12 849 25.07 -1.5 29.3 60 -8.2 17.2
00:10 1020 30.12 849 25.07 -1.5 29.3 61 -8.1 17.4
00:15 1020 30.12 849 25.07 -1.5 29.4 60 -8.2 17.3
00:20 1020 30.12 849 25.07 -1.4 29.4 62 -7.9 17.8
00:25 1020 30.12 849 25.07 -1.5 29.3 61 -8 17.6
00:30 1020 30.12 849 25.07 -1.6 29.2 62 -8 17.6
00:35 1020 30.12 849 25.07 -1.6 29 62 -8 17.5
00:40 1020 30.12 849 25.07 -1.6 29.1 62 -8 17.6
00:45 1020 30.12 849 25.07 -1.6 29.2 61 -8.1 17.5
00:50 1020 30.12 849 25.07 -1.6 29.1 62 -8 17.7
00:55 1020 30.12 849 25.07 -1.7 29 62 -8 17.5
01:00 1020 30.12 849 25.07 -1.8 28.7 65 -7.6 18.3
01:05 1020 30.12 849 25.07 -2.2 28 66 -7.8 17.9
01:10 1020 30.12 849 25.07 -2.4 27.7 65 -8 17.5
01:15 1020 30.12 849 25.07 -2.3 27.9 66 -7.7 18.1
01:20 1020 30.12 849 25.07 -2.3 27.9 66 -7.7 18.2
01:25 1020 30.12 849 25.07 -2.4 27.7 67 -7.6 18.3
01:30 1020 30.12 849 25.07 -2.4 27.7 67 -7.7 18.1
01:35 1020 30.12 849 25.07 -2.3 27.9 66 -7.8 17.9
01:40 1020 30.12 849 25.07 -2.3 27.8 66 -7.8 18
01:45 1020 30.12 849 25.07 -2.7 27.2 69 -7.6 18.4
01:50 1020 30.12 849 25.07 -3.3 26 71 -7.9 17.8
01:55 1020 30.12 849 25.07 -3.7 25.4 71 -8.1 17.4
02:00 1020 30.12 849 25.07 -3.6 25.6 70 -8.3 17
02:05 1020 30.12 850 25.1 -3.3 26 68 -8.3 17
02:10 1020 30.12 850 25.1 -3.3 26.1 67 -8.5 16.7
02:15 1020 30.12 850 25.1 -3.2 26.2 67 -8.6 16.6
02:20 1020 30.12 850 25.1 -3.2 26.3 66 -8.6 16.5
02:25 1020 30.12 850 25.1 -3.2 26.3 66 -8.6 16.5
02:30 1021 30.15 850 25.1 -3.2 26.3 66 -8.6 16.5
02:35 1021 30.15 850 25.1 -3 26.5 65 -8.7 16.3
02:40 1021 30.15 850 25.1 -3.1 26.4 65 -8.7 16.3
02:45 1021 30.15 850 25.1 -3.3 26 66 -8.7 16.3
02:50 1021 30.15 850 25.1 -3.6 25.6 67 -8.7 16.3
02:55 1021 30.15 850 25.1 -3.5 25.6 66 -8.9 15.9
03:00 1021 30.15 850 25.1 -3.6 25.6 66 -9 15.8
03:05 1021 30.15 850 25.1 -3.5 25.8 65 -9.1 15.6
03:10 1021 30.15 850 25.1 -3.2 26.3 65 -8.9 15.9
03:15 1021 30.15 850 25.1 -3.1 26.4 64 -8.9 15.9
03:20 1021 30.15 850 25.1 -3.2 26.3 65 -8.9 15.9
03:25 1021 30.15 850 25.1 -3 26.5 63 -9.1 15.7
03:30 1021 30.15 850 25.1 -2.9 26.8 63 -8.9 15.9
03:35 1021 30.15 850 25.1 -2.9 26.7 63 -9 15.8
03:40 1021 30.15 850 25.1 -2.8 27 62 -9 15.8
03:45 1021 30.15 850 25.1 -2.8 27 62 -9 15.9
03:50 1021 30.15 850 25.1 -2.6 27.3 62 -8.8 16.1
03:55 1021 30.15 850 25.1 -2.4 27.7 61 -8.9 16
04:00 1021 30.15 850 25.1 -2.3 27.8 62 -8.7 16.4
04:05 1021 30.15 850 25.1 -2.5 27.4 62 -8.9 15.9
04:10 1021 30.15 850 25.1 -3.1 26.5 64 -8.9 15.9
04:15 1021 30.15 850 25.1 -3.7 25.3 66 -9.2 15.4
04:20 1021 30.15 850 25.1 -3.7 25.3 66 -9.1 15.6
04:25 1021 30.15 850 25.1 -3.5 25.7 65 -9.1 15.5
04:30 1021 30.15 850 25.1 -3.2 26.2 64 -9.1 15.6
04:35 1021 30.15 850 25.1 -3.3 26.1 65 -8.9 16
04:40 1021 30.15 850 25.1 -3.4 25.9 66 -8.9 15.9
04:45 1021 30.15 850 25.1 -3.5 25.7 65 -9.1 15.5
04:50 1021 30.15 850 25.1 -3.7 25.3 68 -8.8 16.2
04:55 1021 30.15 850 25.1 -4 24.8 69 -9 15.9
05:00 1021 30.15 850 25.1 -4.1 24.5 68 -9.2 15.5
05:05 1021 30.15 850 25.1 -3.8 25.1 69 -8.8 16.2
05:10 1021 30.15 850 25.1 -4.3 24.3 70 -8.9 16
05:15 1021 30.15 850 25.1 -4.4 24 71 -8.9 16
05:20 1021 30.15 850 25.1 -4.6 23.8 71 -9.1 15.7
05:25 1021 30.15 850 25.1 -4.2 24.4 69 -9 15.7
05:30 1021 30.15 850 25.1 -4.3 24.3 70 -9.1 15.7
05:35 1021 30.15 850 25.1 -4.6 23.7 71 -9 15.8
05:40 1021 30.15 850 25.1 -4.7 23.6 72 -9.1 15.7
05:45 1021 30.15 850 25.1 -4.8 23.4 72 -9.1 15.6
05:50 1021 30.15 850 25.1 -5.3 22.5 74 -9.1 15.5
05:55 1021 30.15 850 25.1 -5.9 21.5 75 -9.6 14.6
06:00 1021 30.15 850 25.1 -6.1 21 76 -9.6 14.7
06:05 1021 30.15 850 25.1 -6.6 20.1 77 -10 14.1
06:10 1021 30.15 850 25.1 -6.5 20.3 77 -10 14
06:15 1021 30.15 850 25.1 -6.1 21 75 -9.9 14.1
06:20 1021 30.15 851 25.13 -6.1 21 76 -9.7 14.5
06:25 1021 30.15 851 25.13 -6.2 20.9 74 -10.1 13.8
06:30 1021 30.15 851 25.13 -6.7 19.9 75 -10.4 13.3
06:35 1021 30.15 851 25.13 -7 19.5 76 -10.6 12.9
06:40 1021 30.15 850 25.1 -6.9 19.5 77 -10.2 13.6
06:45 1021 30.15 850 25.1 -7 19.5 78 -10.3 13.5
06:50 1021 30.15 850 25.1 -7 19.4 77 -10.3 13.4
06:55 1021 30.15 851 25.13 -7 19.3 78 -10.2 13.7
07:00 1021 30.15 851 25.13 -6.7 20 76 -10.3 13.5
07:05 1021 30.15 851 25.13 -6.3 20.6 74 -10.2 13.6
07:10 1021 30.15 851 25.13 -6.4 20.4 75 -10.1 13.8
07:15 1021 30.15 851 25.13 -6.5 20.2 75 -10.2 13.6
07:20 1021 30.15 851 25.13 -6.5 20.3 77 -10 14.1
07:25 1021 30.15 851 25.13 -6.5 20.3 77 -9.9 14.3
07:30 1021 30.15 851 25.13 -6.5 20.3 74 -10.4 13.4
07:35 1021 30.15 851 25.13 -6.7 20 76 -10.3 13.5
07:40 1021 30.15 851 25.13 -6.7 19.9 76 -10.2 13.7
07:45 1021 30.15 850 25.1 -6.5 20.3 76 -10 13.9
07:50 1021 30.15 850 25.1 -6.6 20.1 74 -10.5 13
07:55 1021 30.15 850 25.1 -6.7 20 75 -10.4 13.3
08:00 1021 30.15 850 25.1 -6.7 20 75 -10.4 13.3
08:05 1021 30.15 850 25.1 -6.3 20.7 74 -10.2 13.7
08:10 1021 30.15 850 25.1 -6.2 20.8 72 -10.5 13.1
08:15 1021 30.15 850 25.1 -6 21.1 71 -10.6 13
08:20 1021 30.15 850 25.1 -5.6 21.9 69 -10.5 13.1
08:25 1021 30.15 850 25.1 -5.6 22 69 -10.4 13.3
08:30 1021 30.15 850 25.1 -5.9 21.4 70 -10.4 13.2
08:35 1021 30.15 851 25.13 -5.9 21.5 70 -10.4 13.2
08:40 1021 30.15 851 25.13 -5.9 21.3 71 -10.3 13.4
08:45 1021 30.15 851 25.13 -6 21.3 72 -10.3 13.5
08:50 1021 30.15 851 25.13 -5.7 21.7 72 -10 14
08:55 1021 30.15 851 25.13 -5.5 22.2 71 -10 14
09:00 1021 30.15 850 25.1 -5.1 22.8 68 -10.1 13.8
09:05 1021 30.15 851 25.13 -4.7 23.6 67 -9.9 14.1
09:10 1021 30.15 850 25.1 -4.4 24.2 66 -9.9 14.2
09:15 1021 30.15 850 25.1 -3.7 25.3 62 -9.9 14.1
09:20 1021 30.15 851 25.13 -3.7 25.4 63 -9.7 14.5
09:25 1021 30.15 851 25.13 -3.5 25.8 62 -9.7 14.5
09:30 1021 30.15 851 25.13 -2.8 26.9 60 -9.6 14.8
09:35 1021 30.15 851 25.13 -2.6 27.3 59 -9.5 14.9
09:40 1022 30.18 851 25.13 -2.4 27.6 59 -9.4 15.1
09:45 1022 30.18 851 25.13 -2.1 28.2 58 -9.4 15.1
09:50 1022 30.18 851 25.13 -1.7 29 56 -9.2 15.4
09:55 1022 30.18 851 25.13 -1.2 29.8 55 -9.2 15.4
10:00 1022 30.18 851 25.13 -1.1 30 56 -8.8 16.2
10:05 1022 30.18 851 25.13 -1.5 29.3 56 -9.2 15.5
10:10 1022 30.18 851 25.13 -1.2 29.8 54 -9.4 15
10:15 1022 30.18 851 25.13 -1 30.3 53 -9.3 15.3
10:20 1022 30.18 851 25.13 -0.3 31.5 51 -9.1 15.6
10:25 1021 30.15 851 25.13 -0.7 30.7 53 -9.3 15.3
10:30 1021 30.15 851 25.13 -0.8 30.6 53 -9.3 15.3
10:35 1022 30.18 851 25.13 -0.8 30.5 55 -8.8 16.1
10:40 1022 30.18 851 25.13 -0.5 31.1 53 -9 15.8
10:45 1022 30.18 851 25.13 -0.6 30.9 53 -9 15.9
10:50 1021 30.15 851 25.13 -0.4 31.3 52 -9.2 15.4
10:55 1022 30.18 851 25.13 -0.3 31.5 52 -8.9 16
11:00 1022 30.18 851 25.13 -0.5 31 58 -7.8 17.9
11:05 1022 30.18 851 25.13 -0.7 30.7 55 -8.6 16.5
11:10 1022 30.18 851 25.13 -0.4 31.4 52 -8.9 15.9
11:15 1022 30.18 851 25.13 -0.4 31.3 52 -9.2 15.5
11:20 1022 30.18 851 25.13 0.2 32.4 50 -8.9 16
11:25 1022 30.18 851 25.13 0.6 33.1 48 -9.2 15.5
11:30 1022 30.18 851 25.13 1 33.8 47 -9 15.7
11:35 1022 30.18 851 25.13 1.2 34.1 47 -8.8 16.1
11:40 1022 30.18 851 25.13 1 33.7 48 -8.8 16.2
11:45 1022 30.18 851 25.13 1.1 33.9 47 -9 15.7
11:50 1022 30.18 851 25.13 0.9 33.7 48 -8.8 16.1
11:55 1022 30.18 851 25.13 1 33.8 47 -9 15.9
12:00 1022 30.18 851 25.13 1.2 34.2 49 -8.5 16.8
12:05 1022 30.18 851 25.13 1.3 34.3 48 -8.5 16.6
12:10 1022 30.18 851 25.13 1 33.8 50 -8.4 16.9
12:15 1022 30.18 851 25.13 1 33.8 48 -8.7 16.3
12:20 1022 30.18 851 25.13 1.5 34.7 46 -8.9 16
12:25 1021 30.15 851 25.13 1.6 34.9 47 -8.5 16.8
12:30 1021 30.15 851 25.13 1.9 35.5 46 -8.5 16.7
12:35 1021 30.15 851 25.13 2.1 35.8 44 -8.9 16
12:40 1021 30.15 851 25.13 2.1 35.8 44 -8.8 16.2
12:45 1021 30.15 850 25.1 1.8 35.2 47 -8.3 17
12:50 1021 30.15 850 25.1 1.8 35.2 47 -8.3 17
12:55 1021 30.15 850 25.1 1.3 34.4 46 -9.1 15.7
13:00 1021 30.15 850 25.1 1.6 34.8 46 -8.9 15.9
13:05 1021 30.15 850 25.1 1.2 34.1 47 -8.8 16.2
13:10 1021 30.15 850 25.1 1.2 34.1 47 -8.9 16
13:15 1021 30.15 850 25.1 1.5 34.8 46 -8.8 16.1
13:20 1021 30.15 850 25.1 1 33.8 47 -9 15.8
13:25 1021 30.15 850 25.1 1.2 34.1 47 -8.9 16.1
13:30 1021 30.15 850 25.1 0.6 33.1 51 -8.3 17
13:35 1021 30.15 850 25.1 0.2 32.3 50 -9 15.9
13:40 1021 30.15 850 25.1 -0.1 31.8 50 -9.2 15.4
13:45 1021 30.15 850 25.1 0.1 32.2 50 -9.1 15.7
13:50 1020 30.12 850 25.1 1.1 34 48 -8.7 16.3
13:55 1020 30.12 850 25.1 0.9 33.7 50 -8.2 17.2
14:00 1020 30.12 850 25.1 0.5 33 48 -9.2 15.5
14:05 1020 30.12 850 25.1 0.5 32.9 51 -8.5 16.6
14:10 1020 30.12 849 25.07 0.9 33.6 47 -9.1 15.7
14:15 1020 30.12 849 25.07 1.1 34 50 -8.2 17.2
14:20 1020 30.12 849 25.07 1.6 34.9 45 -9.1 15.6
14:25 1020 30.12 849 25.07 2.2 35.9 43 -9.1 15.6
14:30 1020 30.12 849 25.07 2.1 35.8 45 -8.7 16.4
14:35 1020 30.12 849 25.07 2.4 36.3 42 -9.2 15.4
14:40 1020 30.12 849 25.07 1.8 35.3 47 -8.4 16.9
14:45 1020 30.12 849 25.07 2 35.6 45 -8.7 16.3
14:50 1020 30.12 849 25.07 2.1 35.7 44 -8.9 16
14:55 1020 30.12 849 25.07 1.7 35.1 47 -8.3 17
15:00 1020 30.12 849 25.07 2.5 36.5 42 -9.1 15.6
15:05 1020 30.12 849 25.07 2.5 36.4 43 -8.8 16.2
15:10 1020 30.12 849 25.07 2.4 36.3 43 -9 15.8
15:15 1020 30.12 849 25.07 2.6 36.6 44 -8.4 16.8
15:20 1020 30.12 849 25.07 2.3 36.1 45 -8.6 16.5
15:25 1020 30.12 849 25.07 2 35.5 44 -9.1 15.6
15:30 1020 30.12 849 25.07 2.6 36.7 43 -8.7 16.4
15:35 1019 30.09 849 25.07 3.2 37.8 42 -8.4 16.9
15:40 1019 30.09 849 25.07 2.6 36.7 43 -8.6 16.5
15:45 1019 30.09 849 25.07 3.2 37.7 40 -9.2 15.5
15:50 1019 30.09 849 25.07 3.9 39 39 -8.8 16.2
15:55 1019 30.09 849 25.07 3.6 38.5 41 -8.4 16.8
16:00 1019 30.09 848 25.04 3.7 38.7 40 -8.7 16.4
16:05 1019 30.09 848 25.04 3.6 38.5 41 -8.4 16.9
16:10 1019 30.09 848 25.04 3.9 39 41 -8.3 17.1
16:15 1019 30.09 848 25.04 4 39.2 43 -7.6 18.4
16:20 1019 30.09 848 25.04 3.9 39 42 -7.9 17.8
16:25 1019 30.09 848 25.04 4.1 39.3 42 -7.6 18.3
16:30 1019 30.09 848 25.04 3.9 39 40 -8.4 16.9
16:35 1019 30.09 848 25.04 4 39.2 41 -8.1 17.4
16:40 1019 30.09 848 25.04 4.4 40 40 -8 17.5
16:45 1019 30.09 848 25.04 3.8 38.9 41 -8.2 17.2
16:50 1019 30.09 848 25.04 3.1 37.7 44 -8.1 17.5
16:55 1019 30.09 848 25.04 3 37.4 45 -7.8 17.9
17:00 1019 30.09 848 25.04 2.8 37 46 -7.7 18.2
17:05 1019 30.09 848 25.04 3 37.4 46 -7.5 18.6
17:10 1018 30.06 848 25.04 2.7 36.8 48 -7.3 18.9
17:15 1018 30.06 848 25.04 1.9 35.4 51 -7.1 19.3
17:20 1018 30.06 847 25.01 1.6 34.9 53 -7 19.4
17:25 1018 30.06 847 25.01 1.5 34.7 53 -7 19.4
17:30 1018 30.06 847 25.01 1.5 34.7 53 -7.1 19.1
17:35 1018 30.06 847 25.01 1.6 34.8 53 -6.9 19.5
17:40 1018 30.06 847 25.01 1.5 34.7 53 -7.1 19.2
17:45 1018 30.06 847 25.01 1.1 34 55 -6.9 19.7
17:50 1018 30.06 847 25.01 0.7 33.3 56 -7.1 19.2
17:55 1018 30.06 847 25.01 0.3 32.6 56 -7.4 18.7
18:00 1018 30.06 847 25.01 0.1 32.1 57 -7.4 18.6
18:05 1018 30.06 847 25.01 -0.1 31.9 57 -7.5 18.5
18:10 1018 30.06 847 25.01 -0.2 31.7 58 -7.6 18.3
18:15 1018 30.06 847 25.01 -0.3 31.5 58 -7.7 18.2
18:20 1017 30.03 847 25.01 -0.4 31.3 58 -7.7 18.2
18:25 1017 30.03 847 25.01 -0.4 31.2 58 -7.7 18.2
18:30 1017 30.03 847 25.01 -0.4 31.3 57 -7.9 17.8
18:35 1017 30.03 846 24.98 -0.2 31.7 56 -7.9 17.7
18:40 1017 30.03 846 24.98 -0 32 56 -7.9 17.8
18:45 1017 30.03 846 24.98 0.1 32.2 56 -7.7 18.1
18:50 1017 30.03 846 24.98 0.4 32.7 56 -7.5 18.6
18:55 1017 30.03 846 24.98 0.4 32.7 59 -6.7 19.9
19:00 1017 30.03 846 24.98 0.2 32.4 58 -7 19.4
19:05 1017 30.03 846 24.98 -0.1 31.8 59 -7.2 19.1
19:10 1017 30.03 846 24.98 -0.4 31.3 62 -6.8 19.7
19:15 1017 30.03 846 24.98 -0.6 30.9 62 -7 19.4
19:20 1017 30.03 846 24.98 -0.6 30.9 63 -6.9 19.6
19:25 1017 30.03 846 24.98 -0.5 31.1 67 -6 21.3
19:30 1017 30.03 846 24.98 -0.7 30.8 69 -5.7 21.7
19:35 1017 30.03 846 24.98 -0.9 30.4 74 -4.9 23.2
19:40 1017 30.03 846 24.98 -0.4 31.2 72 -4.9 23.1
19:45 1017 30.03 846 24.98 -0.3 31.5 71 -5 23
19:50 1017 30.03 846 24.98 -0.2 31.6 68 -5.5 22.1
19:55 1016 30 846 24.98 -0.4 31.3 70 -5.2 22.7
20:00 1016 30 846 24.98 -0.9 30.4 74 -4.9 23.1
20:05 1016 30 846 24.98 -0.9 30.4 71 -5.5 22
20:10 1016 30 845 24.95 -0.6 31 68 -5.8 21.6
20:15 1016 30 845 24.95 -0.5 31 66 -6.1 21
20:20 1016 30 845 24.95 -0.4 31.2 67 -5.8 21.6
20:25 1016 30 845 24.95 -0.4 31.3 67 -5.8 21.6
20:30 1016 30 845 24.95 -0.6 30.9 67 -6 21.1
20:35 1016 30 845 24.95 -0.3 31.5 65 -6 21.2
20:40 1016 30 845 24.95 -0.1 31.9 65 -5.8 21.5
20:45 1016 30 845 24.95 -0.4 31.4 67 -5.8 21.5
20:50 1016 30 845 24.95 -0.6 31 68 -5.7 21.8
20:55 1016 30 845 24.95 -0.8 30.6 69 -5.7 21.7
21:00 1016 30 845 24.95 -1.2 29.9 71 -5.7 21.7
21:05 1016 30 845 24.95 -1.4 29.5 71 -6 21.2
21:10 1016 30 845 24.95 -1.3 29.7 70 -6.1 21.1
21:15 1016 30 845 24.95 -1.1 30 71 -5.8 21.6
21:20 1016 30 845 24.95 -1 30.2 71 -5.7 21.7
21:25 1016 30 845 24.95 -0.9 30.4 67 -6.2 20.8
21:30 1015 29.97 845 24.95 -0.6 31 65 -6.4 20.6
21:35 1015 29.97 845 24.95 -0.5 31.2 64 -6.4 20.5
21:40 1015 29.97 845 24.95 -0.4 31.3 64 -6.3 20.7
21:45 1015 29.97 845 24.95 -0.3 31.5 64 -6.2 20.8
21:50 1015 29.97 844 24.92 -0.1 31.7 66 -5.8 21.5
21:55 1015 29.97 844 24.92 -0.2 31.6 66 -5.8 21.5
22:00 1015 29.97 844 24.92 -0.3 31.4 67 -5.8 21.6
22:05 1015 29.97 844 24.92 -0.6 30.9 67 -5.9 21.4
22:10 1015 29.97 844 24.92 -0.7 30.8 68 -5.8 21.5
22:15 1015 29.97 844 24.92 -0.6 30.9 69 -5.7 21.8
22:20 1015 29.97 844 24.92 -0.6 30.9 69 -5.6 21.9
22:25 1015 29.97 844 24.92 -0.5 31.1 68 -5.8 21.6
22:30 1015 29.97 844 24.92 -0.2 31.7 63 -6.4 20.5
22:35 1015 29.97 844 24.92 -0 32 64 -6.1 21
22:40 1015 29.97 844 24.92 -0.1 31.8 61 -6.7 19.9
22:45 1015 29.97 844 24.92 -0.1 31.7 62 -6.6 20
22:50 1015 29.97 844 24.92 -0.1 31.8 62 -6.5 20.3
22:55 1015 29.97 844 24.92 -0.2 31.6 62 -6.6 20.1
23:00 1015 29.97 844 24.92 -0.3 31.4 65 -6.2 20.8
23:05 1015 29.97 844 24.92 -0.8 30.6 69 -5.8 21.6
23:10 1014 29.94 844 24.92 -1.6 29.2 73 -5.8 21.5
23:15 1014 29.94 844 24.92 -1.7 29 73 -6 21.2
23:20 1014 29.94 843 24.89 -1.8 28.8 74 -5.9 21.4
23:25 1014 29.94 843 24.89 -1.4 29.4 70 -6.2 20.8
23:30 1014 29.94 843 24.89 -1.2 29.9 74 -5.3 22.5
23:35 1014 29.94 843 24.89 -1.2 29.8 70 -6 21.3
23:40 1014 29.94 843 24.89 -0.9 30.3 74 -5 22.9
23:45 1014 29.94 843 24.89 -1.3 29.6 79 -4.6 23.8
23:50 1014 29.94 843 24.89 -1.4 29.5 80 -4.4 24.1
23:55 1014 29.94 843 24.89 -1.4 29.4 74 -5.6 22
24:00 1014 29.94 843 24.89 -1.4 29.6 70 -6.1 21